Time;durP1;ratioP1;P1;durP2;ratioP2;P2;SDS_P1;SDS_P2;PMS_P1;PMS_P2;Temp;Humidity;BMP_temperature;BMP_pressure;BME280_temperature;BME280_humidity;BME280_pressure;Samples;Min_cycle;Max_cycle;Signal;HPM_P1;HPM_P2
2022/03/10 00:00:24;;;;;;;35.43;28.60;;;4.10;82.30;;;;;;4975018;28;20466;-73
2022/03/10 00:02:50;;;;;;;30.83;27.53;;;4.00;82.40;;;;;;5005558;28;20469;-73
2022/03/10 00:05:19;;;;;;;31.70;28.27;;;4.00;82.80;;;;;;4999224;28;20485;-72
2022/03/10 00:07:47;;;;;;;37.40;27.53;;;4.00;83.70;;;;;;5001976;28;20492;-72
2022/03/10 00:10:14;;;;;;;30.90;27.43;;;4.00;84.60;;;;;;5005218;28;20972;-72
2022/03/10 00:12:48;;;;;;;31.60;27.40;;;4.00;85.40;;;;;;4996803;28;20562;-72
2022/03/10 00:15:17;;;;;;;38.97;29.90;;;4.10;85.00;;;;;;5006637;28;21269;-73
2022/03/10 00:17:44;;;;;;;33.10;28.10;;;4.10;85.30;;;;;;5003082;28;20465;-73
2022/03/10 00:20:12;;;;;;;37.13;29.40;;;4.10;86.00;;;;;;4996587;28;20466;-73
2022/03/10 00:22:46;;;;;;;31.73;28.20;;;4.00;86.80;;;;;;5002585;28;20538;-73
2022/03/10 00:25:14;;;;;;;33.43;29.60;;;4.00;87.40;;;;;;5005144;28;20472;-73
2022/03/10 00:27:41;;;;;;;39.57;28.87;;;4.00;88.00;;;;;;5001878;28;20543;-73
2022/03/10 00:30:09;;;;;;;40.50;29.70;;;3.90;88.80;;;;;;4999506;28;20484;-73
2022/03/10 00:32:45;;;;;;;34.40;30.70;;;3.90;89.60;;;;;;4999700;28;20469;-73
2022/03/10 00:35:15;;;;;;;35.63;29.60;;;3.90;89.90;;;;;;5000453;28;20472;-73
2022/03/10 00:37:42;;;;;;;32.53;28.43;;;3.80;90.10;;;;;;4995158;28;20506;-72
2022/03/10 00:40:10;;;;;;;37.03;30.17;;;3.80;90.40;;;;;;5004771;28;20581;-73
2022/03/10 00:42:39;;;;;;;31.27;27.93;;;3.90;90.40;;;;;;5002760;28;20863;-73
2022/03/10 00:45:07;;;;;;;34.43;27.63;;;3.90;90.60;;;;;;4990486;28;20489;-73
2022/03/10 00:47:35;;;;;;;33.87;28.40;;;3.90;90.60;;;;;;4997356;28;20590;-72
2022/03/10 00:50:05;;;;;;;33.30;28.30;;;3.90;90.60;;;;;;5000695;28;20475;-72
2022/03/10 00:52:32;;;;;;;34.63;28.80;;;4.00;90.50;;;;;;4996188;28;20471;-72
2022/03/10 00:54:59;;;;;;;34.30;28.93;;;4.00;90.10;;;;;;4999680;28;20468;-73
2022/03/10 00:57:26;;;;;;;34.97;28.60;;;4.10;90.00;;;;;;5006205;28;20494;-73
2022/03/10 00:59:52;;;;;;;29.80;26.33;;;4.00;89.40;;;;;;4995919;28;20994;-73
2022/03/10 01:02:19;;;;;;;31.10;27.70;;;4.00;89.30;;;;;;5000431;28;20462;-73
2022/03/10 01:04:46;;;;;;;33.17;29.37;;;4.00;89.00;;;;;;4997688;28;20469;-72
2022/03/10 01:07:14;;;;;;;31.50;28.07;;;4.00;89.00;;;;;;5000909;28;20455;-72
2022/03/10 01:09:42;;;;;;;33.23;27.87;;;4.00;88.50;;;;;;4990234;28;20470;-72
2022/03/10 01:12:10;;;;;;;32.27;28.60;;;4.00;88.50;;;;;;5006522;28;20470;-72
2022/03/10 01:14:37;;;;;;;30.87;27.60;;;4.00;88.00;;;;;;5000433;28;20959;-72
2022/03/10 01:17:05;;;;;;;31.77;28.23;;;4.00;87.80;;;;;;5002167;28;20984;-72
2022/03/10 01:19:31;;;;;;;34.37;27.80;;;4.00;87.70;;;;;;5000389;28;20473;-72
2022/03/10 01:21:58;;;;;;;35.03;26.83;;;4.00;87.70;;;;;;5003649;28;21060;-72
2022/03/10 01:24:29;;;;;;;35.50;28.13;;;4.00;87.00;;;;;;5002583;28;20476;-73
2022/03/10 01:26:56;;;;;;;36.77;27.77;;;4.00;87.20;;;;;;4997041;28;20842;-72
2022/03/10 01:29:23;;;;;;;33.93;27.03;;;3.90;87.10;;;;;;5001292;28;20465;-72
2022/03/10 01:31:53;;;;;;;34.87;28.80;;;4.00;86.40;;;;;;4999740;28;20457;-72
2022/03/10 01:34:20;;;;;;;30.63;27.20;;;4.10;86.00;;;;;;5001256;28;20916;-72
2022/03/10 01:36:47;;;;;;;35.07;28.30;;;4.00;85.60;;;;;;5001938;28;20598;-73
2022/03/10 01:39:14;;;;;;;33.13;28.17;;;4.00;85.90;;;;;;5000940;28;20469;-73
2022/03/10 01:41:43;;;;;;;30.07;26.97;;;3.90;86.10;;;;;;5001879;28;20469;-72
2022/03/10 01:44:11;;;;;;;31.23;27.97;;;4.00;86.10;;;;;;4993680;28;20885;-72
2022/03/10 01:46:39;;;;;;;30.87;27.60;;;4.00;86.20;;;;;;4998428;28;20833;-75
2022/03/10 01:49:07;;;;;;;29.70;26.60;;;4.00;86.20;;;;;;5001519;28;20515;-73
2022/03/10 01:51:35;;;;;;;30.07;26.67;;;3.90;86.10;;;;;;4994815;28;20475;-74
2022/03/10 01:54:03;;;;;;;32.73;26.47;;;3.90;85.90;;;;;;5004678;28;20470;-74
2022/03/10 01:56:32;;;;;;;30.33;27.13;;;4.00;85.70;;;;;;4994925;28;20475;-73
2022/03/10 01:59:04;;;;;;;38.60;26.57;;;3.90;85.70;;;;;;5001576;28;20466;-72
2022/03/10 02:01:32;;;;;;;29.27;26.10;;;3.90;85.60;;;;;;4995347;28;20988;-71
2022/03/10 02:03:59;;;;;;;29.43;26.30;;;3.90;85.80;;;;;;4994058;28;20466;-71
2022/03/10 02:06:26;;;;;;;31.07;27.90;;;3.80;85.80;;;;;;5000048;28;20861;-73
2022/03/10 02:11:35;;;;;;;29.27;26.23;;;3.80;86.00;;;;;;4963289;28;20543;-73
2022/03/10 02:19:31;;;;;;;33.73;26.73;;;3.70;86.10;;;;;;4993919;28;20462;-73
2022/03/10 02:21:58;;;;;;;30.60;27.40;;;3.70;86.40;;;;;;4999616;28;20533;-71
2022/03/10 02:24:26;;;;;;;36.37;26.53;;;3.60;86.60;;;;;;5003209;28;20462;-72
2022/03/10 02:26:53;;;;;;;43.87;29.57;;;3.60;87.50;;;;;;4996615;28;20905;-73
2022/03/10 02:29:20;;;;;;;31.73;28.30;;;3.60;86.80;;;;;;4995708;28;20470;-72
2022/03/10 02:31:47;;;;;;;46.37;28.70;;;3.50;86.80;;;;;;5007048;28;20488;-72
2022/03/10 02:34:14;;;;;;;36.10;26.77;;;3.60;86.20;;;;;;4996224;28;20454;-72
2022/03/10 02:36:41;;;;;;;31.60;27.83;;;3.60;85.70;;;;;;4998463;28;21158;-72
2022/03/10 02:39:08;;;;;;;30.63;27.03;;;3.80;85.20;;;;;;5002333;28;20846;-72
2022/03/10 02:41:36;;;;;;;31.53;25.80;;;3.70;84.80;;;;;;5004344;28;20460;-72
2022/03/10 02:44:04;;;;;;;39.77;27.33;;;3.70;85.10;;;;;;4998604;28;20489;-72
2022/03/10 02:46:32;;;;;;;31.83;26.50;;;3.60;85.30;;;;;;4999300;28;20471;-73
2022/03/10 02:49:00;;;;;;;30.47;27.43;;;3.60;85.80;;;;;;4999692;28;20497;-72
2022/03/10 02:51:27;;;;;;;41.47;26.67;;;3.60;86.00;;;;;;5000334;28;20462;-73
2022/03/10 02:53:53;;;;;;;33.23;28.67;;;3.60;86.20;;;;;;4995656;28;20465;-72
2022/03/10 02:56:21;;;;;;;30.90;27.27;;;3.50;86.00;;;;;;4995515;28;20497;-73
2022/03/10 02:58:50;;;;;;;31.00;27.50;;;3.50;85.80;;;;;;5001653;28;20501;-72
2022/03/10 03:01:17;;;;;;;33.00;27.40;;;3.60;85.70;;;;;;4997163;28;20478;-73
2022/03/10 03:03:44;;;;;;;34.40;28.70;;;3.60;85.30;;;;;;5005066;28;20469;-73
2022/03/10 03:06:10;;;;;;;37.00;28.10;;;3.50;85.50;;;;;;4996962;28;20466;-73
2022/03/10 03:08:37;;;;;;;36.40;27.43;;;3.50;86.10;;;;;;4997937;28;20961;-73
2022/03/10 03:11:05;;;;;;;44.37;28.03;;;3.50;86.00;;;;;;4999531;28;20473;-74
2022/03/10 03:13:32;;;;;;;39.57;27.43;;;3.40;86.10;;;;;;5004544;28;20461;-73
2022/03/10 03:16:01;;;;;;;38.43;26.10;;;3.50;86.00;;;;;;5006907;28;20547;-72
2022/03/10 03:18:28;;;;;;;31.03;27.73;;;3.40;86.60;;;;;;5001055;28;20494;-74
2022/03/10 03:20:55;;;;;;;35.63;27.40;;;3.30;87.00;;;;;;5004477;28;20524;-73
2022/03/10 03:23:23;;;;;;;34.47;29.20;;;3.30;87.10;;;;;;5000951;28;20830;-73
2022/03/10 03:25:51;;;;;;;36.27;28.63;;;3.30;87.50;;;;;;4992709;28;20457;-74
2022/03/10 03:28:21;;;;;;;31.73;28.13;;;3.20;87.10;;;;;;4994482;28;20564;-72
2022/03/10 03:30:47;;;;;;;36.23;27.03;;;3.20;87.80;;;;;;5009157;28;20474;-73
2022/03/10 03:33:16;;;;;;;31.73;28.40;;;3.20;88.10;;;;;;5002228;28;20477;-72
2022/03/10 03:35:43;;;;;;;37.83;27.40;;;3.10;88.20;;;;;;4998440;28;20480;-73
2022/03/10 03:38:11;;;;;;;46.13;28.10;;;3.10;88.50;;;;;;5004197;28;20501;-74
2022/03/10 03:40:38;;;;;;;33.03;27.23;;;3.00;88.50;;;;;;5006334;28;20474;-72
2022/03/10 03:43:05;;;;;;;31.10;27.40;;;3.00;88.20;;;;;;5009605;28;20462;-73
2022/03/10 03:45:32;;;;;;;34.20;27.80;;;3.10;88.00;;;;;;4996776;28;21111;-74
2022/03/10 03:47:59;;;;;;;34.50;27.40;;;3.00;87.70;;;;;;5002328;28;20502;-73
2022/03/10 03:50:27;;;;;;;35.70;27.30;;;3.00;87.80;;;;;;5000604;28;20472;-73
2022/03/10 03:52:54;;;;;;;36.40;27.57;;;2.90;87.80;;;;;;5004619;28;20477;-73
2022/03/10 03:55:21;;;;;;;33.87;27.17;;;2.90;87.70;;;;;;5004542;28;20484;-73
2022/03/10 03:57:48;;;;;;;32.17;28.17;;;2.90;87.40;;;;;;4998785;28;20589;-73
2022/03/10 04:00:16;;;;;;;34.80;26.90;;;3.00;87.10;;;;;;5007485;28;20508;-71
2022/03/10 04:02:43;;;;;;;45.80;27.70;;;3.00;87.00;;;;;;5005737;28;21007;-73
2022/03/10 04:05:10;;;;;;;36.13;28.30;;;3.00;87.30;;;;;;4999437;28;20506;-74
2022/03/10 04:07:39;;;;;;;31.47;27.20;;;3.10;87.20;;;;;;5001649;28;20533;-73
2022/03/10 04:10:07;;;;;;;37.60;27.40;;;3.00;87.60;;;;;;5005623;28;20476;-72
2022/03/10 04:12:35;;;;;;;34.60;27.23;;;3.00;88.10;;;;;;5004538;28;20489;-73
2022/03/10 04:15:06;;;;;;;31.17;27.37;;;3.00;88.50;;;;;;5010391;28;20465;-73
2022/03/10 04:17:33;;;;;;;32.77;27.57;;;3.00;88.40;;;;;;5003060;28;20893;-73
2022/03/10 04:20:00;;;;;;;34.70;27.20;;;2.90;88.60;;;;;;5010541;28;20472;-73
2022/03/10 04:22:27;;;;;;;30.07;27.10;;;2.90;88.60;;;;;;4998837;28;20552;-73
2022/03/10 04:24:55;;;;;;;31.13;27.53;;;2.90;88.40;;;;;;4997254;28;20937;-73
2022/03/10 04:27:22;;;;;;;32.97;28.70;;;2.90;87.90;;;;;;5004184;28;21169;-74
2022/03/10 04:29:49;;;;;;;39.90;27.83;;;3.00;87.50;;;;;;5010258;28;20564;-73
2022/03/10 04:32:16;;;;;;;40.40;27.07;;;2.90;88.30;;;;;;5015218;28;20464;-73
2022/03/10 04:34:45;;;;;;;36.60;26.80;;;2.90;87.40;;;;;;4997822;28;20471;-74
2022/03/10 04:37:13;;;;;;;32.13;27.70;;;2.90;87.60;;;;;;5001794;28;20513;-73
2022/03/10 04:39:40;;;;;;;31.57;28.27;;;2.80;87.40;;;;;;5004730;28;20848;-73
2022/03/10 04:42:08;;;;;;;32.13;27.00;;;2.90;87.20;;;;;;5000153;28;20473;-72
2022/03/10 04:44:36;;;;;;;32.70;26.00;;;2.80;87.10;;;;;;4997503;28;21026;-73
2022/03/10 04:47:03;;;;;;;38.53;26.43;;;2.80;87.10;;;;;;5000554;28;20525;-73
2022/03/10 04:49:30;;;;;;;30.13;26.93;;;2.80;87.10;;;;;;5001261;28;20500;-72
2022/03/10 04:51:59;;;;;;;32.27;25.57;;;2.80;87.30;;;;;;5004709;28;20470;-74
2022/03/10 04:54:26;;;;;;;36.13;27.17;;;2.70;87.30;;;;;;4997121;28;20459;-74
2022/03/10 04:56:53;;;;;;;35.90;26.83;;;2.70;88.10;;;;;;5007052;28;20497;-73
2022/03/10 04:59:21;;;;;;;34.80;28.37;;;2.70;87.30;;;;;;5001477;28;20494;-74
2022/03/10 05:01:51;;;;;;;39.13;28.80;;;2.70;86.80;;;;;;5016471;28;20457;-74
2022/03/10 05:04:18;;;;;;;33.47;27.70;;;2.70;86.90;;;;;;5010379;28;20474;-73
2022/03/10 05:06:48;;;;;;;29.90;26.77;;;2.70;87.10;;;;;;5001623;28;20511;-74
2022/03/10 05:09:15;;;;;;;33.13;27.20;;;2.70;87.30;;;;;;4999361;28;20469;-73
2022/03/10 05:11:42;;;;;;;38.43;27.23;;;2.70;87.10;;;;;;4981317;28;20450;-74
2022/03/10 05:14:08;;;;;;;40.60;27.77;;;2.60;86.80;;;;;;4973707;28;20554;-71
2022/03/10 05:16:37;;;;;;;36.07;28.17;;;2.60;87.10;;;;;;4973464;28;20586;-73
2022/03/10 05:19:04;;;;;;;31.00;27.90;;;2.60;87.60;;;;;;4974143;28;20513;-73
2022/03/10 05:21:30;;;;;;;30.50;27.30;;;2.60;87.90;;;;;;4973803;28;20857;-73
2022/03/10 05:23:57;;;;;;;32.10;28.47;;;2.60;88.40;;;;;;4973167;28;20463;-74
2022/03/10 05:26:24;;;;;;;36.47;28.23;;;2.50;88.40;;;;;;4973049;28;20476;-73
2022/03/10 05:28:51;;;;;;;46.73;28.00;;;2.50;88.50;;;;;;4973205;28;20490;-73
2022/03/10 05:31:18;;;;;;;46.07;28.83;;;2.40;88.60;;;;;;4972497;28;20478;-74
2022/03/10 05:33:48;;;;;;;47.73;28.13;;;2.50;88.70;;;;;;4972277;28;20956;-73
2022/03/10 05:36:15;;;;;;;31.50;27.20;;;2.40;89.00;;;;;;4971802;28;20473;-72
2022/03/10 05:38:42;;;;;;;41.27;27.30;;;2.30;89.90;;;;;;4971754;28;20493;-72
2022/03/10 05:41:09;;;;;;;35.00;29.10;;;2.30;90.00;;;;;;4972794;28;20450;-74
2022/03/10 05:43:36;;;;;;;33.40;27.70;;;2.30;90.20;;;;;;4972640;28;20501;-72
2022/03/10 05:46:04;;;;;;;42.43;30.00;;;2.30;90.30;;;;;;4972935;28;20558;-74
2022/03/10 05:48:31;;;;;;;48.73;28.67;;;2.20;90.30;;;;;;4971992;28;20469;-72
2022/03/10 05:50:59;;;;;;;35.90;28.60;;;2.20;90.40;;;;;;4971932;28;20520;-73
2022/03/10 05:53:26;;;;;;;42.73;27.37;;;2.10;90.40;;;;;;4973415;28;20471;-73
2022/03/10 05:55:53;;;;;;;31.33;27.90;;;2.00;90.50;;;;;;4972461;28;20475;-72
2022/03/10 05:58:20;;;;;;;31.87;28.53;;;2.00;90.70;;;;;;4972048;28;20490;-73
2022/03/10 06:00:47;;;;;;;35.43;28.60;;;2.00;90.80;;;;;;4973459;28;20899;-72
2022/03/10 06:03:14;;;;;;;31.53;27.83;;;2.00;90.80;;;;;;4971981;28;20471;-73
2022/03/10 06:05:41;;;;;;;34.63;27.47;;;1.90;90.90;;;;;;4972255;28;20569;-72
2022/03/10 06:08:09;;;;;;;37.60;28.33;;;2.00;91.00;;;;;;4972350;28;20469;-71
2022/03/10 06:10:36;;;;;;;36.50;28.83;;;2.00;91.20;;;;;;4972919;28;20509;-72
2022/03/10 06:13:02;;;;;;;46.40;28.13;;;2.00;91.20;;;;;;4971990;28;20468;-75
2022/03/10 06:15:30;;;;;;;32.53;28.10;;;2.00;91.40;;;;;;4971045;28;20461;-73
2022/03/10 06:17:57;;;;;;;31.83;28.30;;;2.00;91.40;;;;;;4970721;28;20567;-73
2022/03/10 06:20:25;;;;;;;40.47;28.57;;;2.10;91.60;;;;;;4973049;28;21262;-74
2022/03/10 06:22:52;;;;;;;36.90;28.37;;;2.10;91.30;;;;;;4972265;28;20471;-74
2022/03/10 06:25:20;;;;;;;35.47;30.53;;;2.10;91.30;;;;;;4971184;28;20477;-72
2022/03/10 06:27:47;;;;;;;42.20;29.90;;;2.10;91.40;;;;;;4972171;28;20486;-73
2022/03/10 06:30:14;;;;;;;52.87;30.43;;;2.20;91.40;;;;;;4973125;28;21392;-73
2022/03/10 06:32:41;;;;;;;33.53;28.33;;;2.30;91.40;;;;;;4971598;28;20451;-71
2022/03/10 06:35:09;;;;;;;44.67;28.87;;;2.30;91.30;;;;;;4972157;28;21129;-74
2022/03/10 06:37:36;;;;;;;33.30;29.70;;;2.30;91.40;;;;;;4970985;28;20496;-73
2022/03/10 06:40:03;;;;;;;35.63;30.43;;;2.40;91.50;;;;;;4970814;28;20469;-73
2022/03/10 06:42:32;;;;;;;45.47;30.73;;;2.40;91.60;;;;;;4972301;28;20485;-72
2022/03/10 06:44:59;;;;;;;37.70;28.50;;;2.50;91.80;;;;;;4971941;28;20461;-74
2022/03/10 06:47:26;;;;;;;40.53;29.07;;;2.60;91.80;;;;;;4971396;28;20463;-74
2022/03/10 06:49:54;;;;;;;39.13;30.10;;;2.60;91.60;;;;;;4964424;28;20641;-73
2022/03/10 06:52:21;;;;;;;38.23;31.23;;;2.70;91.60;;;;;;4966725;28;21143;-73
2022/03/10 06:54:49;;;;;;;37.00;29.00;;;2.90;91.20;;;;;;4967346;28;20466;-74
2022/03/10 06:57:15;;;;;;;34.90;30.37;;;2.90;90.90;;;;;;4966446;28;20462;-74
2022/03/10 06:59:44;;;;;;;37.27;30.40;;;3.00;90.80;;;;;;4964898;28;21571;-73
2022/03/10 07:02:15;;;;;;;34.33;29.80;;;3.10;90.50;;;;;;4966637;28;20473;-73
2022/03/10 07:04:42;;;;;;;35.67;29.10;;;3.20;90.40;;;;;;4965642;28;20480;-74
2022/03/10 07:07:08;;;;;;;38.23;31.43;;;3.30;90.40;;;;;;4966269;28;20473;-74
2022/03/10 07:09:35;;;;;;;40.40;29.57;;;3.40;90.20;;;;;;4966874;28;20467;-73
2022/03/10 07:12:02;;;;;;;31.80;28.50;;;3.50;90.00;;;;;;4991156;28;20545;-73
2022/03/10 07:14:29;;;;;;;47.57;29.30;;;3.60;90.00;;;;;;4985185;28;20457;-73
2022/03/10 07:16:58;;;;;;;34.10;30.40;;;3.70;90.10;;;;;;4965959;28;20478;-72
2022/03/10 07:19:24;;;;;;;33.27;29.87;;;3.70;90.00;;;;;;4966433;28;21340;-74
2022/03/10 07:21:52;;;;;;;32.53;28.30;;;3.80;90.00;;;;;;4966116;28;20553;-74
2022/03/10 07:24:19;;;;;;;41.27;29.63;;;3.90;90.10;;;;;;4965587;28;20477;-74
2022/03/10 07:26:46;;;;;;;34.73;29.67;;;4.00;89.50;;;;;;4964868;28;20868;-72
2022/03/10 07:29:14;;;;;;;31.83;28.27;;;4.10;89.50;;;;;;4965359;28;20473;-72
2022/03/10 07:31:40;;;;;;;45.17;31.87;;;4.20;89.40;;;;;;4964716;28;20872;-74
2022/03/10 07:34:09;;;;;;;37.33;31.67;;;4.30;88.90;;;;;;4965938;28;20466;-74
2022/03/10 07:36:35;;;;;;;32.00;28.90;;;4.30;88.80;;;;;;4965924;28;20572;-73
2022/03/10 07:39:02;;;;;;;35.23;31.50;;;4.50;88.50;;;;;;4964423;28;21043;-74
2022/03/10 07:41:29;;;;;;;35.87;29.60;;;4.60;87.40;;;;;;4964714;28;20478;-73
2022/03/10 07:43:56;;;;;;;33.27;30.13;;;4.60;87.80;;;;;;4963715;28;20557;-74
2022/03/10 07:46:23;;;;;;;41.73;30.17;;;4.80;86.50;;;;;;4965556;28;20942;-74
2022/03/10 07:48:51;;;;;;;38.03;30.60;;;4.90;86.30;;;;;;4965528;28;20942;-74
2022/03/10 07:51:20;;;;;;;34.90;31.30;;;5.00;86.10;;;;;;4960783;28;20980;-74
2022/03/10 07:53:47;;;;;;;35.10;31.43;;;5.10;85.70;;;;;;4967044;28;20474;-73
2022/03/10 07:56:14;;;;;;;74.87;32.67;;;5.20;85.30;;;;;;4965964;28;21076;-72
2022/03/10 07:58:47;;;;;;;33.87;30.43;;;5.30;84.60;;;;;;4966023;28;20490;-72
2022/03/10 08:01:14;;;;;;;42.23;32.17;;;5.40;84.20;;;;;;4970218;28;20998;-73
2022/03/10 08:03:41;;;;;;;35.47;30.50;;;5.60;84.30;;;;;;4972136;28;20471;-74
2022/03/10 08:06:08;;;;;;;35.80;31.37;;;5.60;83.10;;;;;;4970678;28;20472;-73
2022/03/10 08:08:37;;;;;;;36.07;30.37;;;5.70;83.10;;;;;;4975631;28;20462;-72
2022/03/10 08:11:08;;;;;;;39.33;29.97;;;5.70;82.40;;;;;;4996251;28;20468;-74
2022/03/10 08:13:35;;;;;;;42.87;30.13;;;5.90;81.80;;;;;;4977446;28;21124;-75
2022/03/10 08:16:02;;;;;;;35.30;31.40;;;6.10;81.40;;;;;;4969552;28;20992;-73
2022/03/10 08:18:30;;;;;;;39.03;29.67;;;6.20;79.80;;;;;;4969058;28;20490;-74
2022/03/10 08:20:58;;;;;;;38.67;31.23;;;6.30;80.30;;;;;;4969192;28;20541;-73
2022/03/10 08:23:25;;;;;;;44.53;31.70;;;6.50;80.10;;;;;;4968917;28;20474;-74
2022/03/10 08:25:54;;;;;;;39.43;34.10;;;6.50;79.80;;;;;;4969294;28;20493;-73
2022/03/10 08:28:21;;;;;;;35.40;31.70;;;6.60;79.60;;;;;;4967196;28;20489;-74
2022/03/10 08:30:48;;;;;;;34.20;30.70;;;6.80;80.10;;;;;;4970225;28;20469;-74
2022/03/10 08:33:15;;;;;;;36.00;31.63;;;6.80;79.40;;;;;;4968564;28;21116;-72
2022/03/10 08:35:42;;;;;;;41.50;32.23;;;7.00;79.80;;;;;;4968768;28;20476;-74
2022/03/10 08:38:09;;;;;;;49.30;32.10;;;7.10;79.50;;;;;;4969014;28;20563;-73
2022/03/10 08:40:36;;;;;;;36.03;31.40;;;7.30;80.10;;;;;;4969536;28;20459;-74
2022/03/10 08:43:05;;;;;;;37.40;31.70;;;7.50;80.30;;;;;;4968979;28;20459;-75
2022/03/10 08:45:32;;;;;;;42.70;31.80;;;7.50;79.90;;;;;;4968489;28;21121;-72
2022/03/10 08:47:59;;;;;;;43.23;31.33;;;7.60;80.40;;;;;;4967565;28;21063;-73
2022/03/10 08:50:27;;;;;;;42.93;32.80;;;7.50;80.00;;;;;;4969221;28;21278;-75
2022/03/10 08:52:54;;;;;;;41.13;33.10;;;7.60;80.50;;;;;;4966729;28;20845;-74
2022/03/10 08:55:20;;;;;;;34.77;31.27;;;7.60;81.00;;;;;;4967826;28;20825;-72
2022/03/10 08:57:47;;;;;;;36.03;31.33;;;7.80;81.10;;;;;;4966715;28;20492;-72
2022/03/10 09:00:18;;;;;;;44.20;31.07;;;7.90;81.40;;;;;;4966918;28;21010;-73
2022/03/10 09:02:45;;;;;;;42.03;31.80;;;8.10;81.80;;;;;;4965893;28;20475;-74
2022/03/10 09:05:13;;;;;;;38.53;32.60;;;8.30;80.70;;;;;;4966950;28;20477;-73
2022/03/10 09:07:40;;;;;;;35.73;31.90;;;8.30;80.40;;;;;;4965393;28;20502;-72
2022/03/10 09:10:08;;;;;;;40.57;31.20;;;8.50;80.60;;;;;;4965744;28;20526;-73
2022/03/10 09:12:35;;;;;;;43.57;31.70;;;8.50;79.60;;;;;;4986500;28;20469;-73
2022/03/10 09:15:04;;;;;;;44.03;31.90;;;8.70;79.50;;;;;;4996564;28;20470;-74
2022/03/10 09:17:33;;;;;;;39.77;32.33;;;8.70;78.60;;;;;;4965946;28;20497;-73
2022/03/10 09:20:00;;;;;;;36.70;32.90;;;8.80;79.10;;;;;;4967085;28;20490;-75
2022/03/10 09:22:27;;;;;;;36.37;32.60;;;9.10;79.70;;;;;;4968394;28;20492;-74
2022/03/10 09:24:54;;;;;;;35.37;31.07;;;9.10;79.70;;;;;;4966245;28;20459;-74
2022/03/10 09:27:21;;;;;;;42.33;32.50;;;9.30;79.50;;;;;;4967360;28;21583;-74
2022/03/10 09:29:48;;;;;;;46.53;33.30;;;9.60;79.10;;;;;;4967366;28;20477;-75
2022/03/10 09:32:15;;;;;;;41.60;33.03;;;9.80;80.10;;;;;;4966634;28;20478;-73
2022/03/10 09:34:43;;;;;;;41.40;33.60;;;9.90;76.70;;;;;;4966707;28;20881;-75
2022/03/10 09:37:11;;;;;;;40.30;32.07;;;10.00;75.30;;;;;;4967818;28;20863;-74
2022/03/10 09:39:38;;;;;;;37.73;33.70;;;10.00;74.90;;;;;;4966787;28;20504;-74
2022/03/10 09:42:06;;;;;;;35.70;32.20;;;10.00;73.00;;;;;;4966950;28;20477;-74
2022/03/10 09:44:36;;;;;;;35.27;31.67;;;10.20;73.90;;;;;;4966962;28;20469;-75
2022/03/10 09:47:04;;;;;;;37.03;33.13;;;10.40;73.20;;;;;;4968115;28;20927;-74
2022/03/10 09:49:34;;;;;;;38.40;32.17;;;10.50;72.40;;;;;;4967660;28;20472;-74
2022/03/10 09:52:03;;;;;;;42.63;32.33;;;10.50;72.20;;;;;;4967720;28;21085;-74
2022/03/10 09:54:30;;;;;;;43.57;34.07;;;10.50;72.10;;;;;;4968603;28;20858;-73
2022/03/10 09:56:57;;;;;;;37.20;31.83;;;10.70;73.00;;;;;;4973226;28;20457;-73
2022/03/10 09:59:27;;;;;;;36.90;32.90;;;10.90;72.30;;;;;;4999895;28;20496;-76
2022/03/10 10:01:55;;;;;;;42.30;32.90;;;11.20;72.40;;;;;;4983913;28;21043;-73
2022/03/10 10:04:22;;;;;;;43.77;32.80;;;11.50;70.90;;;;;;4968742;28;20457;-72
2022/03/10 10:07:06;;;;;;;36.13;32.60;;;12.00;68.50;;;;;;4967025;28;20476;-74
2022/03/10 10:09:46;;;;;;;39.37;31.90;;;12.80;68.70;;;;;;4966765;28;20457;-73
2022/03/10 10:12:15;;;;;;;39.93;32.73;;;13.80;65.90;;;;;;4966396;28;20986;-73
2022/03/10 10:14:44;;;;;;;47.53;32.93;;;14.40;65.20;;;;;;4965952;28;20646;-73
2022/03/10 10:17:11;;;;;;;43.97;31.30;;;15.20;63.50;;;;;;4965876;28;21469;-73
2022/03/10 10:19:40;;;;;;;37.27;33.37;;;15.90;62.10;;;;;;4966119;28;20567;-74
2022/03/10 10:22:16;;;;;;;40.80;32.40;;;16.40;58.70;;;;;;4965849;28;20525;-72
2022/03/10 10:24:50;;;;;;;36.07;32.20;;;16.90;56.90;;;;;;4966975;28;20473;-73
2022/03/10 10:27:19;;;;;;;34.77;31.17;;;17.40;56.60;;;;;;4966259;28;20528;-74
2022/03/10 10:29:48;;;;;;;36.40;31.00;;;17.60;54.80;;;;;;4965229;28;20961;-72
2022/03/10 10:32:25;;;;;;;39.93;34.30;;;17.50;52.70;;;;;;4966612;28;20750;-73
2022/03/10 10:34:59;;;;;;;47.30;33.17;;;17.30;52.40;;;;;;4965854;28;20826;-73
2022/03/10 10:37:29;;;;;;;36.10;30.83;;;16.90;51.40;;;;;;4963208;28;20488;-74
2022/03/10 10:40:11;;;;;;;41.33;33.43;;;16.70;52.00;;;;;;4966902;28;20799;-76
2022/03/10 10:42:40;;;;;;;36.00;32.27;;;16.90;51.40;;;;;;4983797;28;20466;-75
2022/03/10 10:45:28;;;;;;;37.30;31.80;;;17.20;51.50;;;;;;4995004;28;20467;-73
2022/03/10 10:48:00;;;;;;;35.50;31.37;;;17.80;51.40;;;;;;4965074;28;20517;-73
2022/03/10 10:50:30;;;;;;;35.20;31.43;;;18.40;51.00;;;;;;4964370;28;21476;-74
2022/03/10 10:52:58;;;;;;;39.97;32.13;;;18.90;49.40;;;;;;4965097;28;20481;-74
2022/03/10 10:55:33;;;;;;;35.17;31.43;;;19.20;48.30;;;;;;4964751;28;20961;-76
2022/03/10 10:58:06;;;;;;;38.57;33.40;;;19.40;48.10;;;;;;4964999;28;20849;-75
2022/03/10 11:00:41;;;;;;;41.03;32.13;;;20.10;48.70;;;;;;4966112;28;20489;-73
2022/03/10 11:03:20;;;;;;;50.50;31.90;;;20.60;48.40;;;;;;4963821;28;20470;-75
2022/03/10 11:05:48;;;;;;;38.47;33.13;;;20.20;47.20;;;;;;4966729;28;21201;-73
2022/03/10 11:08:16;;;;;;;38.00;33.43;;;20.50;46.60;;;;;;4968247;28;20471;-75
2022/03/10 11:10:46;;;;;;;38.07;34.17;;;20.40;46.30;;;;;;4995710;28;20519;-73
2022/03/10 11:13:13;;;;;;;41.20;31.77;;;20.30;44.80;;;;;;4980161;28;20462;-75
2022/03/10 11:15:42;;;;;;;35.50;31.70;;;20.90;46.60;;;;;;4965151;28;20461;-75
2022/03/10 11:18:12;;;;;;;37.93;33.57;;;20.90;43.80;;;;;;4965103;28;20474;-75
2022/03/10 11:20:40;;;;;;;41.47;35.77;;;21.10;43.70;;;;;;4964412;28;20463;-74
2022/03/10 11:23:18;;;;;;;39.77;33.77;;;21.80;44.40;;;;;;4965588;28;20466;-74
2022/03/10 11:25:54;;;;;;;39.30;34.00;;;21.60;43.60;;;;;;4965454;28;20470;-73
2022/03/10 11:28:23;;;;;;;38.10;34.03;;;21.90;43.10;;;;;;4965209;28;20966;-74
2022/03/10 11:30:51;;;;;;;38.20;34.20;;;22.10;42.90;;;;;;4965934;28;20962;-73
2022/03/10 11:33:18;;;;;;;39.40;33.37;;;21.70;41.60;;;;;;4962038;28;20539;-73
2022/03/10 11:35:47;;;;;;;37.90;34.03;;;21.70;41.70;;;;;;4967632;28;20977;-73
2022/03/10 11:38:15;;;;;;;36.40;32.60;;;21.80;41.90;;;;;;4968554;28;20494;-73
2022/03/10 11:40:44;;;;;;;37.10;33.23;;;22.10;42.30;;;;;;4967368;28;20473;-74
2022/03/10 11:43:19;;;;;;;37.37;33.67;;;22.10;41.80;;;;;;4967814;28;20469;-73
2022/03/10 11:45:47;;;;;;;42.43;34.80;;;22.40;40.80;;;;;;4966173;28;20629;-74
2022/03/10 11:48:43;;;;;;;40.17;33.90;;;22.80;40.40;;;;;;4967751;28;20475;-74
2022/03/10 11:51:13;;;;;;;35.63;32.07;;;22.00;40.50;;;;;;4907726;29;20489;-73
2022/03/10 11:54:05;;;;;;;37.77;34.30;;;21.70;41.20;;;;;;4954911;28;20835;-75
2022/03/10 11:56:51;;;;;;;36.13;31.73;;;22.30;41.60;;;;;;4967523;28;20457;-74
2022/03/10 11:59:22;;;;;;;34.17;30.47;;;22.10;40.90;;;;;;4972704;28;20835;-74
2022/03/10 12:01:50;;;;;;;40.70;32.13;;;22.50;41.10;;;;;;4968042;28;20536;-74
2022/03/10 12:04:18;;;;;;;35.50;31.80;;;22.80;41.60;;;;;;4968869;28;20474;-74
2022/03/10 12:06:50;;;;;;;38.90;33.90;;;22.80;40.50;;;;;;4968336;28;20933;-75
2022/03/10 12:09:28;;;;;;;36.27;32.00;;;23.00;40.30;;;;;;4966662;28;20520;-74
2022/03/10 12:11:55;;;;;;;38.07;33.70;;;23.00;40.10;;;;;;4966080;28;21357;-75
2022/03/10 12:14:27;;;;;;;38.10;32.57;;;23.10;40.20;;;;;;4965935;28;20937;-75
2022/03/10 12:16:54;;;;;;;35.30;31.90;;;23.20;39.80;;;;;;4967147;28;20513;-75
2022/03/10 12:20:07;;;;;;;37.67;33.53;;;23.40;39.20;;;;;;4967002;28;20833;-74
2022/03/10 12:22:36;;;;;;;34.10;30.80;;;23.30;38.90;;;;;;4968922;28;20501;-75
2022/03/10 12:25:20;;;;;;;34.10;30.70;;;23.10;38.70;;;;;;4966558;28;20675;-74
2022/03/10 12:27:50;;;;;;;36.33;32.23;;;23.20;38.70;;;;;;4967339;28;20533;-73
2022/03/10 12:30:21;;;;;;;34.97;31.47;;;23.70;38.40;;;;;;4967952;28;20556;-72
2022/03/10 12:32:51;;;;;;;35.83;32.07;;;23.50;37.90;;;;;;4968269;28;20792;-73
2022/03/10 12:35:20;;;;;;;34.20;30.80;;;23.70;37.80;;;;;;4967869;28;20864;-73
2022/03/10 12:37:48;;;;;;;34.43;31.30;;;23.90;38.10;;;;;;4967803;28;20977;-74
2022/03/10 12:40:19;;;;;;;34.70;31.20;;;24.30;37.30;;;;;;4967370;28;20576;-75
2022/03/10 12:42:47;;;;;;;33.07;29.77;;;24.40;37.40;;;;;;4966016;28;21005;-75
2022/03/10 12:45:14;;;;;;;32.90;30.00;;;24.20;36.90;;;;;;4965232;28;20455;-76
2022/03/10 12:47:45;;;;;;;41.53;28.37;;;23.30;36.40;;;;;;4965858;28;20475;-73